sensor_id;sensor_type;location;lat;lon;timestamp;P1;durP1;ratioP1;P2;durP2;ratioP2
13421;SDS011;6782;55.904;13.396;2023-04-08T00:02:25;9.17;;;8.27;;
13421;SDS011;6782;55.904;13.396;2023-04-08T00:04:52;9.63;;;8.73;;
13421;SDS011;6782;55.904;13.396;2023-04-08T00:07:19;9.53;;;8.63;;
13421;SDS011;6782;55.904;13.396;2023-04-08T00:09:48;9.07;;;8.27;;
13421;SDS011;6782;55.904;13.396;2023-04-08T00:12:14;9.43;;;8.53;;
13421;SDS011;6782;55.904;13.396;2023-04-08T00:14:41;9.17;;;8.37;;
13421;SDS011;6782;55.904;13.396;2023-04-08T00:17:08;9.73;;;8.60;;
13421;SDS011;6782;55.904;13.396;2023-04-08T00:19:36;8.80;;;8.00;;
13421;SDS011;6782;55.904;13.396;2023-04-08T00:22:03;9.40;;;8.50;;
13421;SDS011;6782;55.904;13.396;2023-04-08T00:24:30;9.50;;;8.53;;
13421;SDS011;6782;55.904;13.396;2023-04-08T00:26:59;9.20;;;8.30;;
13421;SDS011;6782;55.904;13.396;2023-04-08T00:29:27;10.10;;;9.10;;
13421;SDS011;6782;55.904;13.396;2023-04-08T00:31:54;9.23;;;8.33;;
13421;SDS011;6782;55.904;13.396;2023-04-08T00:34:21;10.50;;;9.50;;
13421;SDS011;6782;55.904;13.396;2023-04-08T00:36:47;10.40;;;9.43;;
13421;SDS011;6782;55.904;13.396;2023-04-08T00:39:14;10.33;;;9.37;;
13421;SDS011;6782;55.904;13.396;2023-04-08T00:41:41;9.53;;;8.67;;
13421;SDS011;6782;55.904;13.396;2023-04-08T00:44:11;10.23;;;9.33;;
13421;SDS011;6782;55.904;13.396;2023-04-08T00:46:38;9.77;;;8.77;;
13421;SDS011;6782;55.904;13.396;2023-04-08T00:49:06;9.50;;;8.60;;
13421;SDS011;6782;55.904;13.396;2023-04-08T00:51:32;9.10;;;8.20;;
13421;SDS011;6782;55.904;13.396;2023-04-08T00:54:01;9.93;;;8.93;;
13421;SDS011;6782;55.904;13.396;2023-04-08T00:56:29;9.87;;;8.87;;
13421;SDS011;6782;55.904;13.396;2023-04-08T00:58:57;9.60;;;8.70;;
13421;SDS011;6782;55.904;13.396;2023-04-08T01:01:28;9.90;;;8.93;;
13421;SDS011;6782;55.904;13.396;2023-04-08T01:04:00;9.53;;;8.53;;
13421;SDS011;6782;55.904;13.396;2023-04-08T01:06:29;10.10;;;9.10;;
13421;SDS011;6782;55.904;13.396;2023-04-08T01:08:58;10.10;;;9.10;;
13421;SDS011;6782;55.904;13.396;2023-04-08T01:11:26;10.50;;;9.40;;
13421;SDS011;6782;55.904;13.396;2023-04-08T01:13:53;11.07;;;9.73;;
13421;SDS011;6782;55.904;13.396;2023-04-08T01:16:21;11.77;;;10.07;;
13421;SDS011;6782;55.904;13.396;2023-04-08T01:18:52;11.77;;;10.57;;
13421;SDS011;6782;55.904;13.396;2023-04-08T01:21:21;12.20;;;11.00;;
13421;SDS011;6782;55.904;13.396;2023-04-08T01:23:52;11.30;;;10.10;;
13421;SDS011;6782;55.904;13.396;2023-04-08T01:26:23;11.57;;;10.47;;
13421;SDS011;6782;55.904;13.396;2023-04-08T01:28:51;11.17;;;10.03;;
13421;SDS011;6782;55.904;13.396;2023-04-08T01:31:19;11.80;;;10.67;;
13421;SDS011;6782;55.904;13.396;2023-04-08T01:33:48;11.17;;;10.07;;
13421;SDS011;6782;55.904;13.396;2023-04-08T01:36:17;11.93;;;10.17;;
13421;SDS011;6782;55.904;13.396;2023-04-08T01:38:44;12.47;;;11.17;;
13421;SDS011;6782;55.904;13.396;2023-04-08T01:41:12;13.23;;;11.03;;
13421;SDS011;6782;55.904;13.396;2023-04-08T01:43:40;12.57;;;10.47;;
13421;SDS011;6782;55.904;13.396;2023-04-08T01:46:09;12.20;;;10.90;;
13421;SDS011;6782;55.904;13.396;2023-04-08T01:48:37;13.43;;;11.23;;
13421;SDS011;6782;55.904;13.396;2023-04-08T01:51:06;12.73;;;10.53;;
13421;SDS011;6782;55.904;13.396;2023-04-08T01:53:35;12.17;;;10.87;;
13421;SDS011;6782;55.904;13.396;2023-04-08T01:56:03;11.90;;;10.60;;
13421;SDS011;6782;55.904;13.396;2023-04-08T01:58:31;12.70;;;11.40;;
13421;SDS011;6782;55.904;13.396;2023-04-08T02:01:02;13.50;;;12.10;;
13421;SDS011;6782;55.904;13.396;2023-04-08T02:03:30;13.13;;;11.83;;
13421;SDS011;6782;55.904;13.396;2023-04-08T02:05:58;13.10;;;11.73;;
13421;SDS011;6782;55.904;13.396;2023-04-08T02:08:25;12.87;;;11.57;;
13421;SDS011;6782;55.904;13.396;2023-04-08T02:10:52;12.50;;;11.20;;
13421;SDS011;6782;55.904;13.396;2023-04-08T02:13:20;13.13;;;11.83;;
13421;SDS011;6782;55.904;13.396;2023-04-08T02:15:48;13.53;;;11.63;;
13421;SDS011;6782;55.904;13.396;2023-04-08T02:18:21;14.23;;;11.33;;
13421;SDS011;6782;55.904;13.396;2023-04-08T02:20:52;12.77;;;11.37;;
13421;SDS011;6782;55.904;13.396;2023-04-08T02:23:21;13.93;;;11.17;;
13421;SDS011;6782;55.904;13.396;2023-04-08T02:25:50;12.83;;;11.53;;
13421;SDS011;6782;55.904;13.396;2023-04-08T02:28:19;12.17;;;10.87;;
13421;SDS011;6782;55.904;13.396;2023-04-08T02:30:47;12.10;;;10.90;;
13421;SDS011;6782;55.904;13.396;2023-04-08T02:33:22;12.77;;;11.23;;
13421;SDS011;6782;55.904;13.396;2023-04-08T02:35:49;12.50;;;11.20;;
13421;SDS011;6782;55.904;13.396;2023-04-08T02:38:19;12.93;;;11.07;;
13421;SDS011;6782;55.904;13.396;2023-04-08T02:40:48;12.67;;;11.20;;
13421;SDS011;6782;55.904;13.396;2023-04-08T02:43:15;11.70;;;10.57;;
13421;SDS011;6782;55.904;13.396;2023-04-08T02:45:42;11.97;;;10.77;;
13421;SDS011;6782;55.904;13.396;2023-04-08T02:48:14;13.10;;;11.13;;
13421;SDS011;6782;55.904;13.396;2023-04-08T02:50:46;12.10;;;10.90;;
13421;SDS011;6782;55.904;13.396;2023-04-08T02:53:13;12.40;;;11.13;;
13421;SDS011;6782;55.904;13.396;2023-04-08T02:55:40;12.23;;;10.93;;
13421;SDS011;6782;55.904;13.396;2023-04-08T02:58:07;13.30;;;11.43;;
13421;SDS011;6782;55.904;13.396;2023-04-08T03:00:34;13.03;;;10.77;;
13421;SDS011;6782;55.904;13.396;2023-04-08T03:03:05;13.03;;;11.17;;
13421;SDS011;6782;55.904;13.396;2023-04-08T03:05:33;12.77;;;11.23;;
13421;SDS011;6782;55.904;13.396;2023-04-08T03:08:02;12.07;;;10.87;;
13421;SDS011;6782;55.904;13.396;2023-04-08T03:10:41;15.10;;;12.30;;
13421;SDS011;6782;55.904;13.396;2023-04-08T03:13:08;14.63;;;11.80;;
13421;SDS011;6782;55.904;13.396;2023-04-08T03:15:35;15.40;;;12.33;;
13421;SDS011;6782;55.904;13.396;2023-04-08T03:18:03;13.97;;;12.37;;
13421;SDS011;6782;55.904;13.396;2023-04-08T03:20:30;14.23;;;11.67;;
13421;SDS011;6782;55.904;13.396;2023-04-08T03:23:02;13.23;;;11.80;;
13421;SDS011;6782;55.904;13.396;2023-04-08T03:25:29;13.17;;;11.73;;
13421;SDS011;6782;55.904;13.396;2023-04-08T03:27:56;15.07;;;11.30;;
13421;SDS011;6782;55.904;13.396;2023-04-08T03:30:23;14.23;;;11.57;;
13421;SDS011;6782;55.904;13.396;2023-04-08T03:32:50;13.50;;;11.87;;
13421;SDS011;6782;55.904;13.396;2023-04-08T03:35:18;12.73;;;11.23;;
13421;SDS011;6782;55.904;13.396;2023-04-08T03:37:45;14.80;;;11.40;;
13421;SDS011;6782;55.904;13.396;2023-04-08T03:40:14;14.27;;;11.60;;
13421;SDS011;6782;55.904;13.396;2023-04-08T03:42:40;13.50;;;11.53;;
13421;SDS011;6782;55.904;13.396;2023-04-08T03:45:08;13.33;;;11.00;;
13421;SDS011;6782;55.904;13.396;2023-04-08T03:47:35;16.17;;;11.77;;
13421;SDS011;6782;55.904;13.396;2023-04-08T03:50:02;13.77;;;11.17;;
13421;SDS011;6782;55.904;13.396;2023-04-08T03:52:29;13.27;;;11.60;;
13421;SDS011;6782;55.904;13.396;2023-04-08T03:54:56;12.73;;;11.43;;
13421;SDS011;6782;55.904;13.396;2023-04-08T03:57:26;13.37;;;11.73;;
13421;SDS011;6782;55.904;13.396;2023-04-08T03:59:54;12.83;;;11.50;;
13421;SDS011;6782;55.904;13.396;2023-04-08T04:02:22;15.07;;;11.47;;
13421;SDS011;6782;55.904;13.396;2023-04-08T04:04:49;13.43;;;11.67;;
13421;SDS011;6782;55.904;13.396;2023-04-08T04:07:17;12.50;;;11.23;;
13421;SDS011;6782;55.904;13.396;2023-04-08T04:09:43;13.80;;;11.20;;
13421;SDS011;6782;55.904;13.396;2023-04-08T04:12:11;13.53;;;11.13;;
13421;SDS011;6782;55.904;13.396;2023-04-08T04:14:40;12.87;;;11.57;;
13421;SDS011;6782;55.904;13.396;2023-04-08T04:17:07;12.63;;;10.93;;
13421;SDS011;6782;55.904;13.396;2023-04-08T04:19:37;12.60;;;11.30;;
13421;SDS011;6782;55.904;13.396;2023-04-08T04:22:05;12.00;;;10.70;;
13421;SDS011;6782;55.904;13.396;2023-04-08T04:24:32;13.17;;;11.23;;
13421;SDS011;6782;55.904;13.396;2023-04-08T04:26:59;12.67;;;11.20;;
13421;SDS011;6782;55.904;13.396;2023-04-08T04:29:26;11.67;;;10.47;;
13421;SDS011;6782;55.904;13.396;2023-04-08T04:31:54;13.77;;;11.37;;
13421;SDS011;6782;55.904;13.396;2023-04-08T04:34:21;12.07;;;10.83;;
13421;SDS011;6782;55.904;13.396;2023-04-08T04:36:48;12.97;;;10.17;;
13421;SDS011;6782;55.904;13.396;2023-04-08T04:39:15;12.40;;;10.53;;
13421;SDS011;6782;55.904;13.396;2023-04-08T04:41:42;12.57;;;10.00;;
13421;SDS011;6782;55.904;13.396;2023-04-08T04:44:19;11.27;;;10.17;;
13421;SDS011;6782;55.904;13.396;2023-04-08T04:46:47;11.57;;;10.00;;
13421;SDS011;6782;55.904;13.396;2023-04-08T04:49:15;11.00;;;9.93;;
13421;SDS011;6782;55.904;13.396;2023-04-08T04:51:42;10.73;;;9.70;;
13421;SDS011;6782;55.904;13.396;2023-04-08T04:54:10;11.40;;;9.53;;
13421;SDS011;6782;55.904;13.396;2023-04-08T04:56:38;10.90;;;9.80;;
13421;SDS011;6782;55.904;13.396;2023-04-08T04:59:06;10.73;;;9.67;;
13421;SDS011;6782;55.904;13.396;2023-04-08T05:01:33;10.83;;;9.63;;
13421;SDS011;6782;55.904;13.396;2023-04-08T05:04:00;10.57;;;9.57;;
13421;SDS011;6782;55.904;13.396;2023-04-08T05:06:29;10.10;;;9.10;;
13421;SDS011;6782;55.904;13.396;2023-04-08T05:08:56;10.33;;;9.40;;
13421;SDS011;6782;55.904;13.396;2023-04-08T05:11:23;10.87;;;9.17;;
13421;SDS011;6782;55.904;13.396;2023-04-08T05:13:50;10.53;;;9.43;;
13421;SDS011;6782;55.904;13.396;2023-04-08T05:16:17;9.47;;;8.57;;
13421;SDS011;6782;55.904;13.396;2023-04-08T05:18:45;10.37;;;9.37;;
13421;SDS011;6782;55.904;13.396;2023-04-08T05:21:12;10.30;;;9.30;;
13421;SDS011;6782;55.904;13.396;2023-04-08T05:23:44;10.17;;;9.17;;
13421;SDS011;6782;55.904;13.396;2023-04-08T05:26:11;9.13;;;8.23;;
13421;SDS011;6782;55.904;13.396;2023-04-08T05:28:38;10.80;;;8.60;;
13421;SDS011;6782;55.904;13.396;2023-04-08T05:31:10;9.60;;;8.70;;
13421;SDS011;6782;55.904;13.396;2023-04-08T05:33:37;9.97;;;8.10;;
13421;SDS011;6782;55.904;13.396;2023-04-08T05:36:04;9.77;;;8.77;;
13421;SDS011;6782;55.904;13.396;2023-04-08T05:38:32;9.30;;;8.40;;
13421;SDS011;6782;55.904;13.396;2023-04-08T05:41:00;8.93;;;8.00;;
13421;SDS011;6782;55.904;13.396;2023-04-08T05:43:27;9.50;;;8.57;;
13421;SDS011;6782;55.904;13.396;2023-04-08T05:45:54;8.93;;;7.83;;
13421;SDS011;6782;55.904;13.396;2023-04-08T05:48:21;9.07;;;8.17;;
13421;SDS011;6782;55.904;13.396;2023-04-08T05:50:47;9.50;;;8.43;;
13421;SDS011;6782;55.904;13.396;2023-04-08T05:53:14;9.07;;;8.27;;
13421;SDS011;6782;55.904;13.396;2023-04-08T05:55:41;8.87;;;7.97;;
13421;SDS011;6782;55.904;13.396;2023-04-08T05:58:10;8.97;;;8.03;;
13421;SDS011;6782;55.904;13.396;2023-04-08T06:00:37;8.93;;;8.13;;
13421;SDS011;6782;55.904;13.396;2023-04-08T06:03:04;8.30;;;7.60;;
13421;SDS011;6782;55.904;13.396;2023-04-08T06:05:31;8.57;;;7.77;;
13421;SDS011;6782;55.904;13.396;2023-04-08T06:07:58;8.80;;;8.00;;
13421;SDS011;6782;55.904;13.396;2023-04-08T06:10:25;8.67;;;7.87;;
13421;SDS011;6782;55.904;13.396;2023-04-08T06:12:52;8.27;;;7.47;;
13421;SDS011;6782;55.904;13.396;2023-04-08T06:15:21;8.07;;;7.37;;
13421;SDS011;6782;55.904;13.396;2023-04-08T06:17:48;8.23;;;7.43;;
13421;SDS011;6782;55.904;13.396;2023-04-08T06:20:15;7.70;;;7.00;;
13421;SDS011;6782;55.904;13.396;2023-04-08T06:22:42;8.17;;;7.47;;
13421;SDS011;6782;55.904;13.396;2023-04-08T06:25:10;7.10;;;6.50;;
13421;SDS011;6782;55.904;13.396;2023-04-08T06:27:37;7.17;;;6.47;;
13421;SDS011;6782;55.904;13.396;2023-04-08T06:30:04;6.20;;;5.70;;
13421;SDS011;6782;55.904;13.396;2023-04-08T06:32:32;6.00;;;5.40;;
13421;SDS011;6782;55.904;13.396;2023-04-08T06:34:59;5.03;;;4.63;;
13421;SDS011;6782;55.904;13.396;2023-04-08T06:37:26;4.80;;;4.40;;
13421;SDS011;6782;55.904;13.396;2023-04-08T06:39:53;4.73;;;4.33;;
13421;SDS011;6782;55.904;13.396;2023-04-08T06:42:19;4.90;;;4.40;;
13421;SDS011;6782;55.904;13.396;2023-04-08T06:44:46;4.13;;;3.80;;
13421;SDS011;6782;55.904;13.396;2023-04-08T06:47:13;4.30;;;3.90;;
13421;SDS011;6782;55.904;13.396;2023-04-08T06:49:43;5.40;;;4.03;;
13421;SDS011;6782;55.904;13.396;2023-04-08T06:52:11;4.67;;;3.57;;
13421;SDS011;6782;55.904;13.396;2023-04-08T06:54:38;3.80;;;3.50;;
13421;SDS011;6782;55.904;13.396;2023-04-08T06:57:05;3.70;;;3.40;;
13421;SDS011;6782;55.904;13.396;2023-04-08T06:59:33;3.97;;;3.67;;
13421;SDS011;6782;55.904;13.396;2023-04-08T07:02:00;3.50;;;3.20;;
13421;SDS011;6782;55.904;13.396;2023-04-08T07:04:27;4.43;;;3.13;;
13421;SDS011;6782;55.904;13.396;2023-04-08T07:06:56;3.30;;;3.00;;
13421;SDS011;6782;55.904;13.396;2023-04-08T07:09:24;3.33;;;3.07;;
13421;SDS011;6782;55.904;13.396;2023-04-08T07:11:50;3.00;;;2.80;;
13421;SDS011;6782;55.904;13.396;2023-04-08T07:14:17;2.90;;;2.70;;
13421;SDS011;6782;55.904;13.396;2023-04-08T07:16:44;3.00;;;2.80;;
13421;SDS011;6782;55.904;13.396;2023-04-08T07:19:11;3.97;;;2.90;;
13421;SDS011;6782;55.904;13.396;2023-04-08T07:21:38;3.70;;;2.70;;
13421;SDS011;6782;55.904;13.396;2023-04-08T07:24:07;3.17;;;2.87;;
13421;SDS011;6782;55.904;13.396;2023-04-08T07:26:35;3.10;;;2.80;;
13421;SDS011;6782;55.904;13.396;2023-04-08T07:29:02;4.03;;;2.97;;
13421;SDS011;6782;55.904;13.396;2023-04-08T07:31:28;3.63;;;2.90;;
13421;SDS011;6782;55.904;13.396;2023-04-08T07:33:56;3.07;;;2.77;;
13421;SDS011;6782;55.904;13.396;2023-04-08T07:36:23;3.37;;;3.07;;
13421;SDS011;6782;55.904;13.396;2023-04-08T07:38:50;3.50;;;3.20;;
13421;SDS011;6782;55.904;13.396;2023-04-08T07:41:19;3.67;;;2.70;;
13421;SDS011;6782;55.904;13.396;2023-04-08T07:43:46;3.13;;;2.73;;
13421;SDS011;6782;55.904;13.396;2023-04-08T07:46:13;3.00;;;2.80;;
13421;SDS011;6782;55.904;13.396;2023-04-08T07:48:41;4.00;;;2.80;;
13421;SDS011;6782;55.904;13.396;2023-04-08T07:51:08;3.30;;;3.03;;
13421;SDS011;6782;55.904;13.396;2023-04-08T07:53:36;3.07;;;2.60;;
13421;SDS011;6782;55.904;13.396;2023-04-08T07:56:23;4.13;;;2.70;;
13421;SDS011;6782;55.904;13.396;2023-04-08T07:59:08;3.57;;;2.70;;
13421;SDS011;6782;55.904;13.396;2023-04-08T08:01:56;2.50;;;2.30;;
13421;SDS011;6782;55.904;13.396;2023-04-08T08:04:43;3.23;;;2.63;;
13421;SDS011;6782;55.904;13.396;2023-04-08T08:07:30;2.37;;;2.17;;
13421;SDS011;6782;55.904;13.396;2023-04-08T08:10:17;2.40;;;2.20;;
13421;SDS011;6782;55.904;13.396;2023-04-08T08:13:05;2.07;;;1.87;;
13421;SDS011;6782;55.904;13.396;2023-04-08T08:15:52;2.70;;;2.40;;
13421;SDS011;6782;55.904;13.396;2023-04-08T08:18:39;2.37;;;2.13;;
13421;SDS011;6782;55.904;13.396;2023-04-08T08:21:26;2.73;;;2.30;;
13421;SDS011;6782;55.904;13.396;2023-04-08T08:24:13;2.13;;;1.93;;
13421;SDS011;6782;55.904;13.396;2023-04-08T08:26:59;3.20;;;1.97;;
13421;SDS011;6782;55.904;13.396;2023-04-08T08:29:50;2.10;;;2.00;;
13421;SDS011;6782;55.904;13.396;2023-04-08T08:32:37;2.20;;;2.00;;
13421;SDS011;6782;55.904;13.396;2023-04-08T08:35:24;2.73;;;2.20;;
13421;SDS011;6782;55.904;13.396;2023-04-08T08:38:11;3.80;;;2.20;;
13421;SDS011;6782;55.904;13.396;2023-04-08T08:40:59;1.97;;;1.80;;
13421;SDS011;6782;55.904;13.396;2023-04-08T08:43:46;2.03;;;1.90;;
13421;SDS011;6782;55.904;13.396;2023-04-08T08:46:34;2.23;;;2.03;;
13421;SDS011;6782;55.904;13.396;2023-04-08T08:49:21;2.37;;;2.17;;
13421;SDS011;6782;55.904;13.396;2023-04-08T08:52:08;2.70;;;1.90;;
13421;SDS011;6782;55.904;13.396;2023-04-08T08:54:56;2.27;;;1.80;;
13421;SDS011;6782;55.904;13.396;2023-04-08T08:57:43;2.20;;;2.00;;
13421;SDS011;6782;55.904;13.396;2023-04-08T09:00:31;1.97;;;1.73;;
13421;SDS011;6782;55.904;13.396;2023-04-08T09:03:20;2.70;;;1.90;;
13421;SDS011;6782;55.904;13.396;2023-04-08T09:06:07;3.07;;;1.93;;
13421;SDS011;6782;55.904;13.396;2023-04-08T09:08:54;1.90;;;1.80;;
13421;SDS011;6782;55.904;13.396;2023-04-08T09:11:41;2.33;;;2.17;;
13421;SDS011;6782;55.904;13.396;2023-04-08T09:14:28;2.60;;;2.40;;
13421;SDS011;6782;55.904;13.396;2023-04-08T09:17:17;5.10;;;2.40;;
13421;SDS011;6782;55.904;13.396;2023-04-08T09:20:18;2.00;;;1.80;;
13421;SDS011;6782;55.904;13.396;2023-04-08T09:23:05;2.00;;;1.77;;
13421;SDS011;6782;55.904;13.396;2023-04-08T09:25:52;2.00;;;1.90;;
13421;SDS011;6782;55.904;13.396;2023-04-08T09:28:56;2.10;;;1.90;;
13421;SDS011;6782;55.904;13.396;2023-04-08T09:31:43;1.77;;;1.67;;
13421;SDS011;6782;55.904;13.396;2023-04-08T09:34:31;2.60;;;1.93;;
13421;SDS011;6782;55.904;13.396;2023-04-08T09:37:20;2.23;;;1.90;;
13421;SDS011;6782;55.904;13.396;2023-04-08T09:40:07;1.93;;;1.80;;
13421;SDS011;6782;55.904;13.396;2023-04-08T09:42:54;2.57;;;2.00;;
13421;SDS011;6782;55.904;13.396;2023-04-08T09:45:42;1.80;;;1.70;;
13421;SDS011;6782;55.904;13.396;2023-04-08T09:48:31;2.27;;;2.07;;
13421;SDS011;6782;55.904;13.396;2023-04-08T09:51:22;1.97;;;1.80;;
13421;SDS011;6782;55.904;13.396;2023-04-08T09:54:13;2.30;;;2.10;;
13421;SDS011;6782;55.904;13.396;2023-04-08T09:57:01;2.47;;;1.60;;
13421;SDS011;6782;55.904;13.396;2023-04-08T09:59:51;1.80;;;1.70;;
13421;SDS011;6782;55.904;13.396;2023-04-08T10:02:43;1.92;;;1.70;;
13421;SDS011;6782;55.904;13.396;2023-04-08T10:05:31;1.93;;;1.77;;
13421;SDS011;6782;55.904;13.396;2023-04-08T10:08:20;3.28;;;1.75;;
13421;SDS011;6782;55.904;13.396;2023-04-08T10:11:09;1.97;;;1.80;;
13421;SDS011;6782;55.904;13.396;2023-04-08T10:13:51;3.47;;;1.90;;
13421;SDS011;6782;55.904;13.396;2023-04-08T10:16:18;1.70;;;1.60;;
13421;SDS011;6782;55.904;13.396;2023-04-08T10:18:46;4.90;;;2.00;;
13421;SDS011;6782;55.904;13.396;2023-04-08T10:21:29;1.88;;;1.77;;
13421;SDS011;6782;55.904;13.396;2023-04-08T10:23:57;2.88;;;1.98;;
13421;SDS011;6782;55.904;13.396;2023-04-08T10:26:33;3.53;;;2.10;;
13421;SDS011;6782;55.904;13.396;2023-04-08T10:31:46;2.72;;;1.88;;
13421;SDS011;6782;55.904;13.396;2023-04-08T10:34:16;2.25;;;2.10;;
13421;SDS011;6782;55.904;13.396;2023-04-08T10:36:43;2.42;;;1.80;;
13421;SDS011;6782;55.904;13.396;2023-04-08T10:39:10;2.10;;;1.92;;
13421;SDS011;6782;55.904;13.396;2023-04-08T10:41:42;3.67;;;1.90;;
13421;SDS011;6782;55.904;13.396;2023-04-08T10:44:19;1.67;;;1.58;;
13421;SDS011;6782;55.904;13.396;2023-04-08T10:46:46;2.10;;;1.90;;
13421;SDS011;6782;55.904;13.396;2023-04-08T10:49:14;2.33;;;2.13;;
13421;SDS011;6782;55.904;13.396;2023-04-08T10:51:41;2.65;;;2.00;;
13421;SDS011;6782;55.904;13.396;2023-04-08T10:54:14;2.38;;;1.83;;
13421;SDS011;6782;55.904;13.396;2023-04-08T10:56:46;2.85;;;1.80;;
13421;SDS011;6782;55.904;13.396;2023-04-08T10:59:14;1.90;;;1.77;;
13421;SDS011;6782;55.904;13.396;2023-04-08T11:01:44;1.83;;;1.73;;
13421;SDS011;6782;55.904;13.396;2023-04-08T11:04:12;3.08;;;2.00;;
13421;SDS011;6782;55.904;13.396;2023-04-08T11:06:40;2.25;;;1.90;;
13421;SDS011;6782;55.904;13.396;2023-04-08T11:09:07;2.08;;;1.80;;
13421;SDS011;6782;55.904;13.396;2023-04-08T11:11:34;1.92;;;1.83;;
13421;SDS011;6782;55.904;13.396;2023-04-08T11:14:03;2.25;;;1.80;;
13421;SDS011;6782;55.904;13.396;2023-04-08T11:16:30;2.40;;;1.85;;
13421;SDS011;6782;55.904;13.396;2023-04-08T11:18:59;2.38;;;1.75;;
13421;SDS011;6782;55.904;13.396;2023-04-08T11:21:27;3.00;;;1.90;;
13421;SDS011;6782;55.904;13.396;2023-04-08T11:23:54;1.70;;;1.60;;
13421;SDS011;6782;55.904;13.396;2023-04-08T11:26:21;1.80;;;1.70;;
13421;SDS011;6782;55.904;13.396;2023-04-08T11:28:49;3.45;;;2.00;;
13421;SDS011;6782;55.904;13.396;2023-04-08T11:31:18;2.03;;;1.80;;
13421;SDS011;6782;55.904;13.396;2023-04-08T11:33:46;3.05;;;2.00;;
13421;SDS011;6782;55.904;13.396;2023-04-08T11:36:15;2.65;;;1.77;;
13421;SDS011;6782;55.904;13.396;2023-04-08T11:38:43;2.30;;;2.10;;
13421;SDS011;6782;55.904;13.396;2023-04-08T11:41:12;2.22;;;1.98;;
13421;SDS011;6782;55.904;13.396;2023-04-08T11:43:49;2.15;;;2.03;;
13421;SDS011;6782;55.904;13.396;2023-04-08T11:46:18;2.30;;;2.10;;
13421;SDS011;6782;55.904;13.396;2023-04-08T11:48:56;2.60;;;1.80;;
13421;SDS011;6782;55.904;13.396;2023-04-08T11:51:22;2.50;;;2.30;;
13421;SDS011;6782;55.904;13.396;2023-04-08T11:53:50;2.33;;;2.03;;
13421;SDS011;6782;55.904;13.396;2023-04-08T11:56:17;3.05;;;2.20;;
13421;SDS011;6782;55.904;13.396;2023-04-08T11:58:44;2.03;;;1.92;;
13421;SDS011;6782;55.904;13.396;2023-04-08T12:01:12;1.90;;;1.80;;
13421;SDS011;6782;55.904;13.396;2023-04-08T12:03:53;4.05;;;2.25;;
13421;SDS011;6782;55.904;13.396;2023-04-08T12:06:20;3.63;;;2.22;;
13421;SDS011;6782;55.904;13.396;2023-04-08T12:08:46;2.30;;;2.10;;
13421;SDS011;6782;55.904;13.396;2023-04-08T12:11:13;2.53;;;2.33;;
13421;SDS011;6782;55.904;13.396;2023-04-08T12:13:40;2.53;;;2.25;;
13421;SDS011;6782;55.904;13.396;2023-04-08T12:16:07;3.63;;;2.10;;
13421;SDS011;6782;55.904;13.396;2023-04-08T12:18:34;2.30;;;2.10;;
13421;SDS011;6782;55.904;13.396;2023-04-08T12:21:02;2.60;;;2.40;;
13421;SDS011;6782;55.904;13.396;2023-04-08T12:23:29;3.67;;;2.20;;
13421;SDS011;6782;55.904;13.396;2023-04-08T12:25:56;3.22;;;2.50;;
13421;SDS011;6782;55.904;13.396;2023-04-08T12:28:24;3.15;;;2.40;;
13421;SDS011;6782;55.904;13.396;2023-04-08T12:30:52;2.20;;;2.00;;
13421;SDS011;6782;55.904;13.396;2023-04-08T12:33:19;2.55;;;2.35;;
13421;SDS011;6782;55.904;13.396;2023-04-08T12:35:47;4.13;;;2.38;;
13421;SDS011;6782;55.904;13.396;2023-04-08T12:38:15;2.88;;;1.88;;
13421;SDS011;6782;55.904;13.396;2023-04-08T12:40:42;3.88;;;2.35;;
13421;SDS011;6782;55.904;13.396;2023-04-08T12:43:09;3.10;;;2.30;;
13421;SDS011;6782;55.904;13.396;2023-04-08T12:45:36;2.30;;;2.10;;
13421;SDS011;6782;55.904;13.396;2023-04-08T12:48:03;2.47;;;2.28;;
13421;SDS011;6782;55.904;13.396;2023-04-08T12:50:32;5.05;;;2.40;;
13421;SDS011;6782;55.904;13.396;2023-04-08T12:52:58;3.50;;;2.20;;
13421;SDS011;6782;55.904;13.396;2023-04-08T12:55:28;3.53;;;2.53;;
13421;SDS011;6782;55.904;13.396;2023-04-08T12:57:56;3.38;;;2.25;;
13421;SDS011;6782;55.904;13.396;2023-04-08T13:00:24;2.75;;;2.33;;
13421;SDS011;6782;55.904;13.396;2023-04-08T13:03:10;2.80;;;2.50;;
13421;SDS011;6782;55.904;13.396;2023-04-08T13:05:37;2.72;;;2.10;;
13421;SDS011;6782;55.904;13.396;2023-04-08T13:08:04;3.45;;;2.08;;
13421;SDS011;6782;55.904;13.396;2023-04-08T13:10:33;2.63;;;2.17;;
13421;SDS011;6782;55.904;13.396;2023-04-08T13:13:00;2.30;;;2.10;;
13421;SDS011;6782;55.904;13.396;2023-04-08T13:15:27;2.45;;;2.25;;
13421;SDS011;6782;55.904;13.396;2023-04-08T13:17:57;2.42;;;2.22;;
13421;SDS011;6782;55.904;13.396;2023-04-08T13:20:24;2.85;;;2.20;;
13421;SDS011;6782;55.904;13.396;2023-04-08T13:22:51;4.40;;;2.70;;
13421;SDS011;6782;55.904;13.396;2023-04-08T13:25:18;4.05;;;2.20;;
13421;SDS011;6782;55.904;13.396;2023-04-08T13:27:50;4.18;;;2.50;;
13421;SDS011;6782;55.904;13.396;2023-04-08T13:30:18;3.22;;;2.60;;
13421;SDS011;6782;55.904;13.396;2023-04-08T13:32:45;2.70;;;2.30;;
13421;SDS011;6782;55.904;13.396;2023-04-08T13:35:12;3.95;;;2.40;;
13421;SDS011;6782;55.904;13.396;2023-04-08T13:37:39;2.90;;;2.50;;
13421;SDS011;6782;55.904;13.396;2023-04-08T13:40:09;1.90;;;1.80;;
13421;SDS011;6782;55.904;13.396;2023-04-08T13:42:36;2.78;;;2.28;;
13421;SDS011;6782;55.904;13.396;2023-04-08T13:45:05;3.20;;;2.40;;
13421;SDS011;6782;55.904;13.396;2023-04-08T13:47:33;2.55;;;2.35;;
13421;SDS011;6782;55.904;13.396;2023-04-08T13:50:00;2.72;;;2.50;;
13421;SDS011;6782;55.904;13.396;2023-04-08T13:52:27;5.55;;;2.60;;
13421;SDS011;6782;55.904;13.396;2023-04-08T13:54:54;4.25;;;2.40;;
13421;SDS011;6782;55.904;13.396;2023-04-08T13:57:21;35.58;;;4.18;;
13421;SDS011;6782;55.904;13.396;2023-04-08T13:59:48;9.82;;;2.80;;
13421;SDS011;6782;55.904;13.396;2023-04-08T14:02:17;5.80;;;2.58;;
13421;SDS011;6782;55.904;13.396;2023-04-08T14:04:44;2.55;;;2.35;;
13421;SDS011;6782;55.904;13.396;2023-04-08T14:07:11;5.15;;;2.40;;
13421;SDS011;6782;55.904;13.396;2023-04-08T14:09:39;4.07;;;2.20;;
13421;SDS011;6782;55.904;13.396;2023-04-08T14:12:05;3.42;;;2.40;;
13421;SDS011;6782;55.904;13.396;2023-04-08T14:14:32;2.60;;;2.40;;
13421;SDS011;6782;55.904;13.396;2023-04-08T14:16:59;3.75;;;2.33;;
13421;SDS011;6782;55.904;13.396;2023-04-08T14:19:27;2.78;;;2.50;;
13421;SDS011;6782;55.904;13.396;2023-04-08T14:21:53;2.78;;;2.38;;
13421;SDS011;6782;55.904;13.396;2023-04-08T14:24:20;3.80;;;2.35;;
13421;SDS011;6782;55.904;13.396;2023-04-08T14:26:47;3.00;;;2.40;;
13421;SDS011;6782;55.904;13.396;2023-04-08T14:29:14;2.65;;;2.40;;
13421;SDS011;6782;55.904;13.396;2023-04-08T14:31:41;3.83;;;2.10;;
13421;SDS011;6782;55.904;13.396;2023-04-08T14:34:07;9.13;;;2.78;;
13421;SDS011;6782;55.904;13.396;2023-04-08T14:36:36;3.83;;;2.65;;
13421;SDS011;6782;55.904;13.396;2023-04-08T14:39:03;15.65;;;4.45;;
13421;SDS011;6782;55.904;13.396;2023-04-08T14:41:30;2.33;;;2.13;;
13421;SDS011;6782;55.904;13.396;2023-04-08T14:43:57;3.90;;;2.90;;
13421;SDS011;6782;55.904;13.396;2023-04-08T14:46:24;13.52;;;3.03;;
13421;SDS011;6782;55.904;13.396;2023-04-08T14:48:51;3.17;;;2.88;;
13421;SDS011;6782;55.904;13.396;2023-04-08T14:51:18;2.88;;;2.67;;
13421;SDS011;6782;55.904;13.396;2023-04-08T14:53:47;3.65;;;3.28;;
13421;SDS011;6782;55.904;13.396;2023-04-08T14:56:14;3.65;;;2.88;;
13421;SDS011;6782;55.904;13.396;2023-04-08T14:58:40;2.70;;;2.50;;
13421;SDS011;6782;55.904;13.396;2023-04-08T15:01:07;5.55;;;3.10;;
13421;SDS011;6782;55.904;13.396;2023-04-08T15:03:35;3.22;;;2.38;;
13421;SDS011;6782;55.904;13.396;2023-04-08T15:06:02;3.78;;;2.80;;